Time;durP1;ratioP1;P1;durP2;ratioP2;P2;SDS_P1;SDS_P2;PMS_P1;PMS_P2;Temp;Humidity;BMP_temperature;BMP_pressure;BME280_temperature;BME280_humidity;BME280_pressure;Samples;Min_cycle;Max_cycle;Signal;HPM_P1;HPM_P2
2023/07/07 00:00:47;;;;;;;2.67;1.67;;;19.70;88.90;;;;;;5092562;28;20035;-82
2023/07/07 00:03:12;;;;;;;6.80;2.00;;;19.80;89.00;;;;;;5092977;28;20051;-81
2023/07/07 00:05:42;;;;;;;5.78;2.60;;;19.80;89.00;;;;;;5092562;28;20392;-81
2023/07/07 00:08:08;;;;;;;5.93;2.42;;;19.70;89.20;;;;;;5093666;28;20024;-81
2023/07/07 00:10:33;;;;;;;3.92;2.15;;;19.70;89.30;;;;;;5093696;28;20593;-82
2023/07/07 00:12:59;;;;;;;2.95;2.25;;;19.70;89.40;;;;;;5093306;28;20031;-81
2023/07/07 00:15:25;;;;;;;4.93;2.25;;;19.70;89.40;;;;;;5093537;28;20032;-81
2023/07/07 00:17:51;;;;;;;5.03;2.97;;;19.70;89.30;;;;;;5093584;28;20039;-81
2023/07/07 00:20:16;;;;;;;6.95;2.70;;;19.70;89.20;;;;;;5092321;28;20028;-81
2023/07/07 00:22:43;;;;;;;4.32;2.03;;;19.70;89.20;;;;;;5093458;28;20051;-81
2023/07/07 00:25:09;;;;;;;5.55;2.70;;;19.70;89.10;;;;;;5093764;28;20111;-81
2023/07/07 00:27:35;;;;;;;4.00;2.40;;;19.60;89.00;;;;;;5093364;28;20068;-82
2023/07/07 00:30:02;;;;;;;4.97;2.25;;;19.60;89.00;;;;;;5092283;28;20511;-82
2023/07/07 00:32:30;;;;;;;3.53;1.88;;;19.60;88.90;;;;;;5092046;28;20032;-81
2023/07/07 00:34:55;;;;;;;4.68;2.60;;;19.60;88.90;;;;;;5093449;28;20104;-81
2023/07/07 00:37:21;;;;;;;4.93;2.88;;;19.60;89.00;;;;;;5097195;28;20024;-81
2023/07/07 00:39:46;;;;;;;5.07;2.50;;;19.50;89.50;;;;;;5095935;28;20031;-81
2023/07/07 00:42:12;;;;;;;3.50;2.10;;;19.50;89.90;;;;;;5095907;28;20463;-81
2023/07/07 00:45:20;;;;;;;4.05;2.60;;;19.50;90.00;;;;;;5097045;28;20030;-81
2023/07/07 00:47:59;;;;;;;3.63;2.63;;;19.50;90.00;;;;;;5084934;28;20036;-80
2023/07/07 00:50:29;;;;;;;5.80;3.15;;;19.40;90.00;;;;;;5097338;28;20107;-81
2023/07/07 00:52:55;;;;;;;4.65;2.30;;;19.40;90.00;;;;;;5096891;28;20024;-81
2023/07/07 00:55:30;;;;;;;5.03;2.70;;;19.40;90.10;;;;;;5096587;28;20031;-81
2023/07/07 00:58:06;;;;;;;2.88;1.85;;;19.40;90.10;;;;;;5095761;28;20024;-81
2023/07/07 01:00:35;;;;;;;3.83;2.90;;;19.40;90.10;;;;;;5096192;28;20032;-81
2023/07/07 01:03:16;;;;;;;5.72;2.80;;;19.40;90.10;;;;;;5095324;28;20023;-80
2023/07/07 01:05:44;;;;;;;8.38;2.65;;;19.40;90.00;;;;;;5096986;28;20028;-81
2023/07/07 01:08:10;;;;;;;3.47;2.05;;;19.40;90.10;;;;;;5096620;28;20035;-81
2023/07/07 01:10:35;;;;;;;4.85;3.03;;;19.40;90.00;;;;;;5096612;28;20376;-80
2023/07/07 01:13:01;;;;;;;4.10;2.08;;;19.40;90.00;;;;;;5096460;28;20031;-81
2023/07/07 01:15:30;;;;;;;5.45;2.90;;;19.40;90.20;;;;;;5095524;28;20024;-81
2023/07/07 01:18:05;;;;;;;5.90;3.25;;;19.40;89.60;;;;;;5096156;28;20047;-80
2023/07/07 01:21:01;;;;;;;4.82;2.50;;;19.40;89.50;;;;;;5096690;28;20024;-82
2023/07/07 01:23:47;;;;;;;3.95;2.05;;;19.30;89.70;;;;;;5095293;28;20064;-81
2023/07/07 01:26:35;;;;;;;3.30;1.35;;;19.30;89.70;;;;;;5055179;28;20036;-81
2023/07/07 01:29:19;;;;;;;3.75;2.53;;;19.40;89.80;;;;;;5096301;28;20024;-81
2023/07/07 01:32:26;;;;;;;5.93;2.58;;;19.30;89.70;;;;;;5096357;28;20027;-82
2023/07/07 01:34:56;;;;;;;5.55;2.50;;;19.40;89.70;;;;;;5095211;28;20032;-80
2023/07/07 01:37:22;;;;;;;5.63;2.85;;;19.40;89.50;;;;;;5096207;28;20369;-80
2023/07/07 01:39:50;;;;;;;7.15;3.00;;;19.30;89.40;;;;;;5096394;28;20109;-81
2023/07/07 01:42:27;;;;;;;3.05;1.73;;;19.30;89.20;;;;;;5095732;28;20099;-80
2023/07/07 01:45:19;;;;;;;5.00;2.42;;;19.30;89.50;;;;;;5096240;28;20020;-80
2023/07/07 01:48:12;;;;;;;3.37;2.00;;;19.30;89.60;;;;;;5094499;28;20081;-81
2023/07/07 01:50:39;;;;;;;2.83;1.65;;;19.30;89.70;;;;;;5094860;28;20337;-80
2023/07/07 01:53:09;;;;;;;4.15;3.05;;;19.30;89.70;;;;;;5094639;28;20119;-80
2023/07/07 01:55:39;;;;;;;5.32;2.80;;;19.30;89.80;;;;;;5094992;28;20383;-81
2023/07/07 01:58:08;;;;;;;5.70;2.58;;;19.30;90.00;;;;;;5095708;28;20047;-81
2023/07/07 02:00:36;;;;;;;2.85;2.30;;;19.30;90.00;;;;;;5094920;28;20359;-81
2023/07/07 02:03:08;;;;;;;4.65;3.28;;;19.30;90.10;;;;;;5095379;28;20020;-81
2023/07/07 02:05:34;;;;;;;3.35;2.08;;;19.30;90.10;;;;;;5095533;28;20077;-80
2023/07/07 02:07:59;;;;;;;3.03;2.40;;;19.30;90.20;;;;;;5094758;28;20168;-81
2023/07/07 02:10:25;;;;;;;3.28;1.65;;;19.20;90.10;;;;;;5095500;28;20028;-81
2023/07/07 02:12:51;;;;;;;6.03;2.50;;;19.30;90.20;;;;;;5095462;28;20031;-81
2023/07/07 02:15:16;;;;;;;3.28;2.17;;;19.30;90.10;;;;;;5095599;28;20035;-81
2023/07/07 02:17:42;;;;;;;5.65;3.22;;;19.30;90.20;;;;;;5095320;28;20123;-82
2023/07/07 02:20:11;;;;;;;5.15;3.33;;;19.30;90.20;;;;;;5094959;28;20028;-81
2023/07/07 02:22:37;;;;;;;3.78;2.13;;;19.20;90.30;;;;;;5077615;28;20028;-81
2023/07/07 02:25:04;;;;;;;5.38;1.80;;;19.10;90.30;;;;;;5095141;28;20020;-81
2023/07/07 02:27:29;;;;;;;5.70;2.08;;;19.20;90.30;;;;;;5095044;28;20111;-82
2023/07/07 02:29:55;;;;;;;4.00;2.60;;;19.20;90.30;;;;;;5076512;28;20120;-82
2023/07/07 02:32:21;;;;;;;4.78;3.13;;;19.20;90.30;;;;;;5076802;28;20185;-82
2023/07/07 02:34:49;;;;;;;5.10;3.45;;;19.20;90.30;;;;;;5094695;28;20024;-81
2023/07/07 02:37:16;;;;;;;4.97;2.83;;;19.20;90.30;;;;;;5094604;28;20132;-81
2023/07/07 02:39:42;;;;;;;4.50;2.95;;;19.20;90.30;;;;;;5094790;28;20085;-81
2023/07/07 02:42:08;;;;;;;5.95;3.45;;;19.10;90.30;;;;;;5094877;28;20047;-81
2023/07/07 02:44:33;;;;;;;5.50;2.40;;;19.10;90.40;;;;;;5094840;28;20460;-80
2023/07/07 02:46:59;;;;;;;4.70;2.90;;;19.10;90.50;;;;;;5093422;28;20039;-80
2023/07/07 02:49:25;;;;;;;5.07;2.65;;;19.10;90.50;;;;;;5094733;28;20051;-81
2023/07/07 02:51:50;;;;;;;3.45;2.53;;;19.10;90.50;;;;;;5094333;28;20122;-81
2023/07/07 02:54:16;;;;;;;3.95;3.03;;;19.00;90.50;;;;;;5076355;28;20028;-80
2023/07/07 02:56:41;;;;;;;9.40;4.13;;;19.00;90.60;;;;;;5076593;28;20032;-80
2023/07/07 02:59:07;;;;;;;5.32;3.53;;;18.90;90.70;;;;;;5092696;28;20039;-81
2023/07/07 03:01:33;;;;;;;7.50;3.60;;;18.90;90.80;;;;;;5093010;28;20043;-81
2023/07/07 03:03:58;;;;;;;7.05;3.55;;;18.90;90.90;;;;;;5094452;28;20106;-80
2023/07/07 03:06:25;;;;;;;6.03;3.53;;;18.90;90.90;;;;;;5094319;28;20061;-81
2023/07/07 03:08:51;;;;;;;7.40;3.65;;;18.80;90.90;;;;;;5094308;28;20097;-81
2023/07/07 03:11:21;;;;;;;5.43;3.00;;;18.80;90.90;;;;;;5094088;28;20407;-81
2023/07/07 03:13:48;;;;;;;7.28;3.67;;;18.80;90.90;;;;;;5094566;28;20028;-81
2023/07/07 03:16:21;;;;;;;4.07;2.90;;;18.80;90.90;;;;;;5093009;28;20414;-81
2023/07/07 03:18:57;;;;;;;9.45;3.90;;;18.90;90.90;;;;;;5092912;28;20097;-80
2023/07/07 03:21:24;;;;;;;7.93;3.80;;;18.80;90.90;;;;;;5093945;28;20028;-81
2023/07/07 03:23:54;;;;;;;5.65;3.80;;;18.80;90.90;;;;;;5094416;28;20056;-81
2023/07/07 03:26:21;;;;;;;5.28;3.30;;;18.80;91.00;;;;;;5076006;28;20392;-80
2023/07/07 03:28:47;;;;;;;4.50;3.00;;;18.80;91.10;;;;;;5059662;28;20105;-81
2023/07/07 03:31:16;;;;;;;4.22;2.92;;;18.80;91.10;;;;;;5093793;28;20472;-81
2023/07/07 03:33:44;;;;;;;4.45;3.33;;;18.80;91.00;;;;;;5093944;28;20020;-81
2023/07/07 03:36:11;;;;;;;4.97;3.60;;;18.80;91.00;;;;;;5093575;28;20543;-81
2023/07/07 03:38:38;;;;;;;4.63;3.30;;;18.80;91.10;;;;;;5093917;28;20024;-81
2023/07/07 03:41:04;;;;;;;5.35;3.25;;;18.80;91.00;;;;;;5093970;28;20028;-81
2023/07/07 03:43:33;;;;;;;6.13;3.33;;;18.80;91.00;;;;;;5075946;28;20028;-80
2023/07/07 03:46:00;;;;;;;5.25;3.03;;;18.80;91.00;;;;;;5094039;28;20372;-81
2023/07/07 03:48:27;;;;;;;4.30;2.88;;;18.80;91.00;;;;;;5092457;28;20044;-81
2023/07/07 03:50:56;;;;;;;4.68;2.35;;;18.70;91.00;;;;;;5092837;28;20073;-81
2023/07/07 03:53:22;;;;;;;5.75;3.90;;;18.70;91.10;;;;;;5093537;28;20020;-79
2023/07/07 03:55:48;;;;;;;7.53;3.90;;;18.60;91.20;;;;;;5093810;28;20516;-81
2023/07/07 03:58:13;;;;;;;5.70;3.28;;;18.60;91.40;;;;;;5075655;28;20036;-81
2023/07/07 04:00:39;;;;;;;5.70;3.78;;;18.50;91.50;;;;;;5093171;28;20028;-80
2023/07/07 04:03:04;;;;;;;5.00;3.63;;;18.50;91.40;;;;;;5092287;28;20036;-80
2023/07/07 04:05:30;;;;;;;5.47;3.35;;;18.60;91.50;;;;;;5093326;28;20039;-80
2023/07/07 04:07:56;;;;;;;7.25;3.30;;;18.60;91.40;;;;;;5076412;28;20060;-81
2023/07/07 04:10:21;;;;;;;6.63;3.63;;;18.60;91.40;;;;;;5097243;28;20111;-80
2023/07/07 04:12:47;;;;;;;6.00;3.08;;;18.60;91.40;;;;;;5096674;28;20103;-81
2023/07/07 04:15:13;;;;;;;7.50;3.78;;;18.60;91.50;;;;;;5079833;28;20030;-81
2023/07/07 04:17:38;;;;;;;5.47;3.33;;;18.50;91.50;;;;;;5096743;28;20028;-81
2023/07/07 04:20:05;;;;;;;5.55;3.65;;;18.50;91.50;;;;;;5096723;28;20448;-81
2023/07/07 04:22:31;;;;;;;5.15;3.60;;;18.50;91.60;;;;;;5097854;28;20107;-78
2023/07/07 04:25:14;;;;;;;5.90;3.53;;;18.40;91.70;;;;;;5097504;28;20114;-81
2023/07/07 04:27:39;;;;;;;;;;;18.40;91.80;;;;;;5097074;28;20372;-80
2023/07/07 04:30:06;;;;;;;5.68;3.47;;;18.40;91.70;;;;;;5097431;28;19904;-80
2023/07/07 04:32:32;;;;;;;5.65;4.07;;;18.40;91.80;;;;;;5097008;28;20473;-81
2023/07/07 04:34:59;;;;;;;6.00;3.55;;;18.40;91.90;;;;;;5096038;28;20379;-80
2023/07/07 04:37:25;;;;;;;5.95;4.05;;;18.50;92.00;;;;;;5097592;28;20036;-81
2023/07/07 04:39:51;;;;;;;6.10;3.80;;;18.40;92.00;;;;;;5096918;28;20476;-80
2023/07/07 04:42:16;;;;;;;4.88;3.40;;;18.50;92.00;;;;;;5096929;28;20039;-81
2023/07/07 04:44:42;;;;;;;4.60;3.13;;;18.50;92.00;;;;;;5096081;28;20024;-81
2023/07/07 04:47:08;;;;;;;6.63;4.20;;;18.50;92.00;;;;;;5096084;28;20073;-80
2023/07/07 04:49:33;;;;;;;7.07;3.58;;;18.50;92.00;;;;;;5097029;28;20472;-80
2023/07/07 04:51:59;;;;;;;5.25;3.50;;;18.60;92.10;;;;;;5096709;28;20103;-80
2023/07/07 04:54:25;;;;;;;6.28;3.45;;;18.60;92.00;;;;;;5095674;28;20182;-81
2023/07/07 04:56:50;;;;;;;4.50;3.35;;;18.60;92.00;;;;;;5095633;28;20038;-81
2023/07/07 04:59:16;;;;;;;7.10;3.70;;;18.60;92.00;;;;;;5096486;28;20361;-81
2023/07/07 05:01:42;;;;;;;6.00;3.90;;;18.70;92.00;;;;;;5096847;28;20453;-81
2023/07/07 05:04:08;;;;;;;4.63;3.50;;;18.70;92.00;;;;;;5096476;28;20031;-81
2023/07/07 05:06:37;;;;;;;4.70;3.15;;;18.70;92.00;;;;;;5096958;28;20523;-81
2023/07/07 05:09:04;;;;;;;4.88;2.95;;;18.70;92.00;;;;;;5096333;28;20017;-80
2023/07/07 05:11:31;;;;;;;5.55;3.67;;;18.70;92.00;;;;;;5096432;28;20035;-80
2023/07/07 05:13:57;;;;;;;9.57;4.70;;;18.70;92.00;;;;;;5097078;28;20024;-81
2023/07/07 05:16:30;;;;;;;8.93;4.45;;;18.70;92.00;;;;;;5096437;28;20093;-81
2023/07/07 05:18:56;;;;;;;;;;;18.70;92.00;;;;;;5097162;28;20020;-80
2023/07/07 05:21:24;;;;;;;7.32;3.78;;;18.70;92.10;;;;;;5095815;28;20421;-81
2023/07/07 05:23:53;;;;;;;6.18;4.32;;;18.70;92.10;;;;;;5095034;28;20357;-81
2023/07/07 05:26:20;;;;;;;9.10;5.90;;;18.60;92.10;;;;;;5094932;28;20059;-81
2023/07/07 05:28:46;;;;;;;12.07;6.18;;;18.60;92.20;;;;;;5095133;28;20110;-81
2023/07/07 05:31:11;;;;;;;10.80;6.43;;;18.50;92.30;;;;;;5096169;28;20028;-82
2023/07/07 05:33:38;;;;;;;9.02;5.10;;;18.50;92.40;;;;;;5096184;28;20027;-81
2023/07/07 05:36:05;;;;;;;11.13;5.72;;;18.50;92.50;;;;;;5094679;28;20055;-81
2023/07/07 05:38:31;;;;;;;13.05;6.00;;;18.60;92.40;;;;;;5096188;28;20052;-80
2023/07/07 05:40:57;;;;;;;9.45;5.47;;;18.60;92.30;;;;;;5096049;28;20036;-80
2023/07/07 05:43:25;;;;;;;6.90;4.72;;;18.70;92.30;;;;;;5096292;28;20032;-81
2023/07/07 05:45:55;;;;;;;10.30;4.10;;;18.70;92.30;;;;;;5095801;28;20036;-81
2023/07/07 05:48:21;;;;;;;8.13;5.75;;;18.80;92.20;;;;;;5094422;28;20044;-81
2023/07/07 05:50:47;;;;;;;12.02;6.07;;;18.80;92.30;;;;;;5060919;28;20361;-68
2023/07/07 05:53:13;;;;;;;3.22;1.70;;;18.80;92.00;;;;;;5095220;28;20039;-68
2023/07/07 05:55:39;;;;;;;4.25;2.85;;;18.90;92.00;;;;;;5095525;28;20028;-68
2023/07/07 05:58:05;;;;;;;2.88;1.60;;;19.10;91.60;;;;;;5095099;28;20032;-68
2023/07/07 06:00:33;;;;;;;6.85;2.55;;;19.30;91.20;;;;;;5095541;28;20035;-68
2023/07/07 06:02:59;;;;;;;7.07;2.70;;;19.60;90.90;;;;;;5095573;28;20456;-68
2023/07/07 06:05:26;;;;;;;6.68;3.28;;;19.70;90.70;;;;;;5095432;28;20035;-69
2023/07/07 06:07:53;;;;;;;6.55;3.25;;;19.80;90.60;;;;;;5094290;28;20113;-69
2023/07/07 06:10:19;;;;;;;7.90;3.10;;;20.00;90.30;;;;;;5095279;28;20028;-69
2023/07/07 06:12:45;;;;;;;5.60;2.90;;;20.10;90.10;;;;;;5095194;28;20107;-70
2023/07/07 06:15:11;;;;;;;6.18;2.75;;;20.10;90.00;;;;;;5095127;28;20028;-69
2023/07/07 06:17:36;;;;;;;6.15;2.90;;;20.20;89.70;;;;;;5094960;28;20036;-69
2023/07/07 06:20:03;;;;;;;6.88;3.00;;;20.40;89.20;;;;;;5095398;28;20028;-69
2023/07/07 06:22:28;;;;;;;5.75;2.28;;;20.50;89.10;;;;;;5093777;28;20028;-69
2023/07/07 06:24:54;;;;;;;7.47;4.00;;;20.60;89.00;;;;;;5095347;28;20035;-69
2023/07/07 06:27:20;;;;;;;7.78;3.35;;;20.60;88.70;;;;;;5094739;28;20114;-69
2023/07/07 06:29:46;;;;;;;6.15;2.80;;;20.60;88.80;;;;;;5094761;28;20055;-69
2023/07/07 06:32:12;;;;;;;5.65;3.08;;;20.60;88.80;;;;;;5092370;28;20051;-69
2023/07/07 06:34:38;;;;;;;7.20;3.50;;;20.70;88.50;;;;;;5095054;28;20110;-69
2023/07/07 06:37:04;;;;;;;6.65;3.70;;;20.70;88.40;;;;;;5094087;28;20028;-69
2023/07/07 06:39:30;;;;;;;9.95;4.35;;;20.80;88.20;;;;;;5094062;28;20028;-69
2023/07/07 06:41:56;;;;;;;5.63;3.17;;;20.90;88.40;;;;;;5094412;28;20487;-69
2023/07/07 06:44:22;;;;;;;7.75;2.90;;;20.90;88.20;;;;;;5095033;28;20020;-69
2023/07/07 06:46:48;;;;;;;9.60;4.78;;;21.00;88.30;;;;;;5093427;28;20044;-70
2023/07/07 06:49:13;;;;;;;9.25;3.30;;;21.00;87.50;;;;;;5094408;28;20051;-69
2023/07/07 06:51:39;;;;;;;7.75;2.92;;;21.10;87.80;;;;;;5094110;28;20503;-69
2023/07/07 06:54:05;;;;;;;8.70;3.20;;;21.20;87.60;;;;;;5094555;28;20388;-69
2023/07/07 06:56:30;;;;;;;6.85;3.42;;;21.20;87.10;;;;;;5093003;28;20173;-69
2023/07/07 06:58:56;;;;;;;9.00;3.20;;;21.30;86.70;;;;;;5093152;28;20024;-69
2023/07/07 07:01:22;;;;;;;10.88;4.25;;;21.40;86.60;;;;;;5094570;28;20024;-69
2023/07/07 07:03:47;;;;;;;10.88;3.80;;;21.40;86.80;;;;;;5076156;28;20039;-69
2023/07/07 07:06:13;;;;;;;14.25;4.22;;;21.40;86.70;;;;;;5094489;28;20074;-69
2023/07/07 07:08:39;;;;;;;8.48;4.20;;;21.40;86.00;;;;;;5092980;28;20469;-69
2023/07/07 07:11:06;;;;;;;10.02;3.85;;;21.40;86.50;;;;;;5059342;28;20032;-68
2023/07/07 07:13:32;;;;;;;7.47;3.38;;;21.40;86.90;;;;;;5094180;28;20032;-69
2023/07/07 07:15:58;;;;;;;5.78;2.53;;;21.30;87.00;;;;;;5094472;28;20035;-69
2023/07/07 07:18:24;;;;;;;9.30;4.30;;;21.40;87.40;;;;;;5094415;28;20030;-69
2023/07/07 07:20:51;;;;;;;10.00;3.92;;;21.50;86.30;;;;;;5094118;28;20033;-69
2023/07/07 07:23:17;;;;;;;12.85;4.57;;;21.50;85.90;;;;;;5094089;28;20074;-69
2023/07/07 07:25:44;;;;;;;8.25;4.22;;;21.60;85.70;;;;;;5093595;28;20392;-69
2023/07/07 07:28:11;;;;;;;9.07;3.80;;;21.70;84.90;;;;;;5094048;28;20016;-69
2023/07/07 07:30:37;;;;;;;15.40;4.47;;;21.80;84.90;;;;;;5093381;28;20528;-69
2023/07/07 07:33:05;;;;;;;9.95;4.10;;;21.80;85.90;;;;;;5093500;28;20032;-69
2023/07/07 07:35:31;;;;;;;10.98;4.35;;;21.80;85.30;;;;;;5092804;28;20084;-69
2023/07/07 07:37:57;;;;;;;6.63;3.50;;;21.90;85.20;;;;;;5093423;28;20024;-69
2023/07/07 07:40:23;;;;;;;9.35;4.03;;;21.90;84.90;;;;;;5093574;28;20024;-69
2023/07/07 07:42:52;;;;;;;10.88;4.78;;;21.90;83.90;;;;;;5093807;28;20161;-69
2023/07/07 07:45:21;;;;;;;8.10;3.47;;;22.00;84.30;;;;;;5093043;28;20103;-69
2023/07/07 07:47:48;;;;;;;8.50;3.58;;;22.10;85.40;;;;;;5093352;28;20074;-68
2023/07/07 07:50:15;;;;;;;7.43;3.47;;;22.20;84.40;;;;;;5092794;28;20028;-69
2023/07/07 07:52:41;;;;;;;9.85;2.92;;;22.30;86.00;;;;;;5076231;28;20035;-69
2023/07/07 07:55:07;;;;;;;6.88;3.13;;;22.40;84.20;;;;;;5092373;28;20375;-70
2023/07/07 07:57:32;;;;;;;9.45;2.95;;;22.40;82.00;;;;;;5093595;28;20479;-69
2023/07/07 07:59:58;;;;;;;6.05;2.30;;;22.50;82.60;;;;;;5092343;28;20043;-79
2023/07/07 08:02:24;;;;;;;6.18;3.13;;;22.50;82.50;;;;;;5075581;28;20035;-78
2023/07/07 08:04:50;;;;;;;4.15;1.88;;;22.60;82.60;;;;;;5093793;28;20426;-81
2023/07/07 08:07:15;;;;;;;3.47;1.83;;;22.80;82.80;;;;;;5091949;28;20123;-80
2023/07/07 08:09:41;;;;;;;5.82;1.95;;;22.90;80.50;;;;;;5093234;28;20032;-82
2023/07/07 08:12:09;;;;;;;6.90;1.90;;;22.90;80.00;;;;;;5092258;28;20039;-81
2023/07/07 08:14:35;;;;;;;4.65;1.70;;;23.00;81.60;;;;;;5093568;28;20035;-82
2023/07/07 08:17:07;;;;;;;6.82;2.00;;;23.20;78.60;;;;;;5092222;28;20024;-81
2023/07/07 08:19:35;;;;;;;4.20;1.60;;;23.20;77.50;;;;;;5093594;28;20020;-80
2023/07/07 08:22:06;;;;;;;4.30;1.65;;;23.30;77.50;;;;;;5092014;28;20032;-80
2023/07/07 08:24:36;;;;;;;5.65;1.70;;;23.40;78.80;;;;;;5093749;28;20024;-81
2023/07/07 08:27:02;;;;;;;4.63;1.33;;;23.40;75.90;;;;;;5092020;28;20089;-81
2023/07/07 08:29:27;;;;;;;3.70;1.70;;;23.50;75.90;;;;;;5092039;28;20036;-80
2023/07/07 08:31:54;;;;;;;2.97;1.40;;;23.60;74.40;;;;;;5075843;28;20028;-79
2023/07/07 08:34:20;;;;;;;3.08;1.65;;;23.70;76.00;;;;;;5075622;28;20541;-81
2023/07/07 08:36:47;;;;;;;4.38;1.70;;;23.80;74.90;;;;;;5093234;28;20063;-79
2023/07/07 08:39:14;;;;;;;4.72;1.30;;;23.90;74.50;;;;;;5093365;28;20024;-79
2023/07/07 08:42:09;;;;;;;5.65;1.48;;;23.90;73.20;;;;;;5091652;28;20025;-80
2023/07/07 08:44:35;;;;;;;4.88;1.30;;;24.00;74.00;;;;;;5060666;28;20117;-79
2023/07/07 08:47:27;;;;;;;3.80;1.38;;;24.20;73.40;;;;;;5093436;28;20346;-80
2023/07/07 08:49:52;;;;;;;4.90;1.25;;;24.20;71.60;;;;;;5054187;28;20040;-79
2023/07/07 08:52:23;;;;;;;4.30;1.63;;;24.30;71.40;;;;;;5093073;28;20051;-77
2023/07/07 08:55:01;;;;;;;6.18;1.08;;;24.30;70.60;;;;;;5093084;28;20020;-78
2023/07/07 08:57:30;;;;;;;3.08;1.05;;;24.30;69.00;;;;;;5095390;28;20028;-79
2023/07/07 09:00:25;;;;;;;3.38;1.25;;;24.30;69.20;;;;;;5096902;28;20081;-78
2023/07/07 09:02:57;;;;;;;3.05;1.20;;;24.40;69.70;;;;;;5096008;28;20047;-78
2023/07/07 09:05:45;;;;;;;2.78;0.93;;;24.50;72.30;;;;;;5096553;28;20059;-79
2023/07/07 09:08:23;;;;;;;3.45;1.05;;;24.60;70.00;;;;;;5096323;28;20032;-79
2023/07/07 09:11:27;;;;;;;3.80;0.95;;;24.70;69.10;;;;;;5097226;28;20081;-79
2023/07/07 09:13:56;;;;;;;2.70;0.90;;;24.70;68.70;;;;;;5097073;28;20368;-83
2023/07/07 09:16:34;;;;;;;3.30;0.90;;;24.80;68.10;;;;;;5096848;28;20024;-81
2023/07/07 09:19:22;;;;;;;4.70;0.98;;;24.90;67.20;;;;;;5095800;28;20066;-80
2023/07/07 09:21:53;;;;;;;5.70;1.00;;;25.00;67.80;;;;;;5096513;28;20024;-81
2023/07/07 09:24:32;;;;;;;4.63;0.90;;;25.10;67.00;;;;;;5096784;28;20035;-81
2023/07/07 09:27:16;;;;;;;2.78;0.93;;;25.20;66.90;;;;;;5095036;28;20484;-81
2023/07/07 09:29:43;;;;;;;5.97;1.35;;;25.40;67.80;;;;;;5095656;28;20531;-82
2023/07/07 09:32:12;;;;;;;3.88;1.00;;;25.50;68.20;;;;;;5095867;28;20444;-80
2023/07/07 09:34:39;;;;;;;3.30;0.93;;;25.60;66.00;;;;;;5097769;28;20030;-81
2023/07/07 09:37:23;;;;;;;4.85;2.10;;;25.70;68.20;;;;;;5096447;28;20119;-82
2023/07/07 09:40:21;;;;;;;1.70;0.85;;;25.80;65.90;;;;;;5096156;28;20024;-81
2023/07/07 09:43:13;;;;;;;3.85;1.35;;;25.80;65.50;;;;;;5096185;28;20024;-81
2023/07/07 09:45:55;;;;;;;3.22;1.10;;;26.00;66.80;;;;;;5095927;28;20103;-80
2023/07/07 09:48:43;;;;;;;4.87;1.20;;;26.10;67.10;;;;;;5095917;28;20059;-82
2023/07/07 09:51:21;;;;;;;2.42;0.80;;;26.10;64.60;;;;;;5096450;28;20298;-82
2023/07/07 09:53:47;;;;;;;7.25;1.23;;;26.20;63.40;;;;;;5094602;28;20028;-80
2023/07/07 09:56:18;;;;;;;3.03;1.13;;;26.20;63.20;;;;;;5096494;28;20051;-81
2023/07/07 09:58:53;;;;;;;2.38;0.80;;;26.20;65.30;;;;;;5096401;28;20495;-81
2023/07/07 10:01:19;;;;;;;2.97;1.20;;;26.30;64.40;;;;;;5096457;28;20016;-82
2023/07/07 10:07:01;;;;;;;3.72;0.77;;;26.50;61.60;;;;;;5095569;28;20035;-82
2023/07/07 10:09:28;;;;;;;2.22;1.00;;;26.50;62.90;;;;;;5096374;28;20052;-79
2023/07/07 10:11:55;;;;;;;3.17;0.80;;;26.60;60.50;;;;;;5096699;28;20036;-80
2023/07/07 10:14:22;;;;;;;1.85;0.80;;;26.60;60.30;;;;;;5094837;28;20032;-80
2023/07/07 10:17:04;;;;;;;4.93;1.05;;;26.60;59.50;;;;;;5094383;28;20032;-79
2023/07/07 10:19:34;;;;;;;3.55;1.25;;;26.60;59.70;;;;;;5094292;28;20473;-79
2023/07/07 10:22:00;;;;;;;3.67;0.80;;;26.70;60.10;;;;;;5095031;28;20486;-80
2023/07/07 10:24:28;;;;;;;5.45;1.25;;;26.70;59.20;;;;;;5094844;28;20083;-80
2023/07/07 10:26:53;;;;;;;5.32;1.20;;;26.80;59.70;;;;;;5094352;28;20617;-80
2023/07/07 10:29:28;;;;;;;4.45;1.38;;;26.80;59.50;;;;;;5095672;28;20107;-76
2023/07/07 10:31:53;;;;;;;1.88;0.90;;;26.80;58.60;;;;;;5096171;28;20369;-79
2023/07/07 10:34:25;;;;;;;4.47;0.95;;;26.90;61.30;;;;;;5094980;28;20043;-79
2023/07/07 10:36:56;;;;;;;1.90;0.93;;;27.00;63.00;;;;;;5094732;28;20032;-81
2023/07/07 10:39:24;;;;;;;4.53;1.27;;;27.10;60.00;;;;;;5094970;28;20258;-80
2023/07/07 10:41:50;;;;;;;2.80;1.13;;;27.10;58.40;;;;;;5094721;28;20028;-80
2023/07/07 10:44:15;;;;;;;4.07;1.00;;;27.10;59.50;;;;;;5094629;28;20024;-80
2023/07/07 10:46:41;;;;;;;2.13;1.05;;;27.10;59.00;;;;;;5094613;28;20123;-81
2023/07/07 10:49:16;;;;;;;3.97;1.13;;;27.20;59.10;;;;;;5076590;28;20044;-80
2023/07/07 10:51:53;;;;;;;3.72;1.15;;;27.10;58.10;;;;;;5093065;28;20119;-81
2023/07/07 10:54:39;;;;;;;2.40;1.15;;;27.10;59.90;;;;;;5094332;28;20030;-80
2023/07/07 10:57:21;;;;;;;2.03;1.05;;;27.20;60.10;;;;;;5094184;28;20051;-80
2023/07/07 11:00:04;;;;;;;2.83;1.17;;;27.40;59.50;;;;;;5093182;28;20070;-80
2023/07/07 11:02:46;;;;;;;4.40;1.27;;;27.50;59.00;;;;;;5094188;28;20052;-80
2023/07/07 11:05:56;;;;;;;2.87;1.00;;;27.50;58.10;;;;;;5094198;28;20111;-80
2023/07/07 11:08:53;;;;;;;4.55;1.60;;;27.60;57.50;;;;;;5062840;28;20071;-80
2023/07/07 11:11:23;;;;;;;2.92;1.00;;;27.60;58.10;;;;;;5094135;28;20456;-81
2023/07/07 11:14:05;;;;;;;4.80;1.33;;;27.60;57.10;;;;;;5094133;28;20118;-80
2023/07/07 11:17:01;;;;;;;2.67;1.02;;;27.60;57.50;;;;;;5093606;28;20028;-80
2023/07/07 11:20:10;;;;;;;2.22;1.10;;;27.60;58.20;;;;;;5093480;28;20380;-81
2023/07/07 11:22:55;;;;;;;2.83;1.17;;;27.80;58.30;;;;;;5071985;28;20118;-80
2023/07/07 11:25:28;;;;;;;2.70;1.23;;;27.90;57.30;;;;;;5093748;28;20048;-80
2023/07/07 11:27:54;;;;;;;3.60;1.38;;;27.90;57.70;;;;;;5094076;28;20047;-80
2023/07/07 11:30:34;;;;;;;3.70;1.35;;;27.90;58.40;;;;;;5094219;28;20456;-80
2023/07/07 11:33:15;;;;;;;2.60;1.17;;;28.00;56.90;;;;;;5093853;28;20032;-79
2023/07/07 11:36:07;;;;;;;4.25;1.80;;;28.00;56.80;;;;;;5094333;28;20024;-81
2023/07/07 11:38:39;;;;;;;2.30;1.10;;;28.00;56.20;;;;;;5088237;28;20130;-80
2023/07/07 11:41:45;;;;;;;7.45;1.30;;;28.00;57.40;;;;;;5093375;28;20039;-80
2023/07/07 11:44:40;;;;;;;1.60;0.95;;;28.00;57.90;;;;;;5093727;28;20028;-81
2023/07/07 11:47:35;;;;;;;5.43;1.25;;;28.20;56.50;;;;;;5093380;28;20081;-81
2023/07/07 11:50:24;;;;;;;4.70;1.70;;;28.20;56.50;;;;;;5091606;28;20054;-81
2023/07/07 11:53:17;;;;;;;4.35;1.23;;;28.20;57.40;;;;;;5082175;28;20142;-81
2023/07/07 11:56:20;;;;;;;3.05;1.40;;;28.30;58.00;;;;;;5093728;28;20035;-81
2023/07/07 11:59:00;;;;;;;5.38;1.75;;;28.40;56.90;;;;;;5093462;28;20082;-80
2023/07/07 12:01:33;;;;;;;5.28;1.15;;;28.50;56.00;;;;;;5092716;28;20111;-81
2023/07/07 12:04:07;;;;;;;2.65;1.20;;;28.50;57.40;;;;;;5091764;28;20480;-80
2023/07/07 12:06:58;;;;;;;2.58;1.20;;;28.60;55.20;;;;;;5093342;28;20028;-81
2023/07/07 12:09:38;;;;;;;5.18;1.20;;;28.60;54.10;;;;;;5093184;28;20100;-81
2023/07/07 12:12:08;;;;;;;3.75;1.30;;;28.70;55.20;;;;;;5093267;28;20039;-81
2023/07/07 12:14:41;;;;;;;4.72;1.35;;;28.70;55.00;;;;;;5093431;28;20476;-81
2023/07/07 12:17:15;;;;;;;2.97;1.30;;;28.80;55.30;;;;;;5092567;28;20444;-80
2023/07/07 12:19:48;;;;;;;3.28;1.38;;;28.80;55.40;;;;;;5093045;28;20499;-78
2023/07/07 12:22:23;;;;;;;3.80;1.30;;;28.80;54.30;;;;;;5093350;28;20020;-79
2023/07/07 12:25:23;;;;;;;2.92;1.50;;;28.80;54.10;;;;;;5093637;28;20043;-79
2023/07/07 12:27:51;;;;;;;2.85;1.30;;;28.70;54.60;;;;;;5093229;28;20036;-79
2023/07/07 12:30:38;;;;;;;4.93;1.20;;;28.80;55.80;;;;;;5092208;28;20029;-79
2023/07/07 12:33:05;;;;;;;3.42;1.65;;;29.00;56.50;;;;;;5096282;28;20016;-79
2023/07/07 12:35:58;;;;;;;5.22;1.30;;;29.00;54.40;;;;;;5097235;28;20024;-80
2023/07/07 12:38:31;;;;;;;4.40;1.58;;;29.10;54.00;;;;;;5097563;28;20024;-78
2023/07/07 12:41:02;;;;;;;5.85;1.38;;;29.10;54.00;;;;;;5095594;28;20024;-79
2023/07/07 12:43:30;;;;;;;3.05;1.17;;;29.10;54.10;;;;;;5096102;28;20024;-80
2023/07/07 12:45:56;;;;;;;2.20;1.13;;;29.10;53.20;;;;;;5096895;28;20042;-79
2023/07/07 12:48:26;;;;;;;3.78;1.10;;;29.20;53.50;;;;;;5096432;28;20140;-80
2023/07/07 12:50:59;;;;;;;3.22;1.45;;;29.20;52.10;;;;;;5096811;28;20031;-80
2023/07/07 12:53:29;;;;;;;2.92;1.42;;;29.20;52.50;;;;;;5095144;28;20264;-80
2023/07/07 12:56:06;;;;;;;6.47;1.65;;;29.10;52.60;;;;;;5096636;28;20027;-80
2023/07/07 12:58:43;;;;;;;2.80;1.30;;;29.10;52.80;;;;;;5095507;28;20078;-79
2023/07/07 13:01:15;;;;;;;6.40;1.75;;;29.20;54.60;;;;;;5096628;28;20099;-79
2023/07/07 13:03:43;;;;;;;3.65;1.63;;;29.30;53.60;;;;;;5096638;28;20456;-82
2023/07/07 13:06:36;;;;;;;4.25;1.55;;;29.40;53.50;;;;;;5097104;28;20182;-79
2023/07/07 13:09:11;;;;;;;3.30;1.13;;;29.40;52.00;;;;;;5096594;28;20024;-79
2023/07/07 13:11:41;;;;;;;2.63;1.00;;;29.50;52.20;;;;;;5096703;28;20024;-79